Raleigh County Memorial Airport
KBKW : rendu visible

Aérodrome :











RETROUVEZ-NOUS SUR...

 
LOGIN :

S'inscrire | Disclaimer

   EN    FR    IT 

 









Légende :    VFR   VFR Marginal   IFR   IFR Intensif   IFR Très Intensif
Visi : 
Plafond : 
>= 8 km
>= 3000ft
5 à 8 km
1000 à 3000 ft
1500m à 5 km
500 à 1000 ft
800 à 1500m
200 à 500 ft
< 800m
< 200 ft
Symboles :   Orages  Brouillard  Fortes neiges  Fortes précipitations  Vent > 20 kt






- Altitude de l'aérodrome : 2504 ft
- Code IATA : BKW


KBKW - Raleigh County Memorial

DERNIER METAR :
  • 081251Z AUTO 06004KT 9SM -RA FEW014 BKN036 OVC060 12/10 A2983 RMK AO2 SLP081 P0029 T01220100

METARs EXPIRÉS :
  • 081232Z AUTO 33005KT 2SM -RA BR FEW011 SCT026 OVC036 12/10 A2985 RMK AO2 VIS 1 RWY19 LTG DSNT N P0027 T01170100
  • 081220Z AUTO 05006KT 2SM VCTS RA BR FEW011 BKN025 OVC043 12/10 A2984 RMK AO2 VIS 1 1/4 RWY19 LTG DSNT N AND NE P0016 T01170100
  • 081204Z AUTO 04005KT 3SM -RA BR FEW015 BKN038 OVC050 12/10 A2983 RMK AO2 LTG DSNT N AND NW CIG 013 RWY19 P0014 T01170100
  • 081159Z AUTO 06006KT 1 1/2SM +RA BR FEW014 BKN027 OVC049 12/10 A2983 RMK AO2 LTG DSNT N AND NW CIG 013 RWY19 P0013 T01170100
  • 081149Z AUTO 36007G14KT 2 1/2SM +RA BR FEW015 BKN022 OVC029 12/09 A2984 RMK AO2 WSHFT 1039 LTG DSNT N RAB26 CIG 015 RWY19 PRESRR SLP083 P0013 60013 70013 T01170094 10183 20117 53024
  • 081132Z AUTO 05009KT 10SM VCTS -RA OVC020 13/09 A2980 RMK AO2 WSHFT 1039 LTG DSNT N-E RAB26 P0000 T01280089
  • 081059Z AUTO 04011G21KT 10SM BKN020 OVC026 14/09 A2979 RMK AO2 WSHFT 1039 LTG DSNT NW T01390089
  • 081051Z AUTO 04013G23KT 10SM BKN020 BKN027 OVC055 14/09 A2979 RMK AO2 PK WND 02029/1040 RAE00 SLP062 P0000 T01390089
  • 080951Z AUTO 30010G20KT 10SM -RA SCT029 BKN043 OVC100 18/13 A2977 RMK AO2 LTG DSNT NE RAB34 CIG 031 RWY19 SLP052 P0000 T01780128

TAF KBKW
Valide du 08 à 12h jusqu'au 09 à 12h UTC


081158Z 0812/0912 04012G20KT 5SM -SHRA VCTS BKN025CB OVC045
TEMPO 0812/0813 2SM -TSRA BKN025CB
FM081400 23012KT P6SM -SHRA VCTS BKN025CB OVC045
FM081800 28014G23KT P6SM BKN045
FM082300 28005KT P6SM SCT250
FM090800 23014G22KT 4SM SHRA VCTS BKN035CB OVC060
FM091000 28010KT P6SM -SHRA OVC040



MET'MAP, la Météo Aéronautique d'un coup d'oeil ! - Copyright ORBIFLY Décembre 2007 - Disclaimer

ORBIFLY MET'MAP TEAM :

Programmation & Développement : Alexandra Zaïnal
Sur une idée originale de : Baudouin d'Aumeries
Assistance à la programmation : Marc-Olivier Méhu
Soutien technique & logistique : Manuel Goepfert

Contact : metmap@orbifly.com




SOURCES & CREDITS :

   NOAA       Earth
Advisory